createdAt,value
2017-11-07T00:01:53.502Z,92.94
2017-11-07T00:04:21.219Z,92.98
2017-11-07T00:06:48.968Z,93.01
2017-11-07T00:09:16.770Z,93.37
2017-11-07T00:11:44.611Z,93.62
2017-11-07T00:14:12.375Z,93.53
2017-11-07T00:16:40.152Z,93.04
2017-11-07T00:19:07.872Z,93.34
2017-11-07T00:21:35.599Z,93.14
2017-11-07T00:24:03.354Z,93.04
2017-11-07T00:26:31.027Z,92.98
2017-11-07T00:28:58.750Z,92.84
2017-11-07T00:31:26.466Z,93.02
2017-11-07T00:33:54.345Z,93.11
2017-11-07T00:36:22.033Z,93.07
2017-11-07T00:38:49.717Z,92.92
2017-11-07T00:41:17.437Z,92.91
2017-11-07T00:43:45.159Z,92.99
2017-11-07T00:46:12.875Z,92.94
2017-11-07T00:48:40.602Z,93.04
2017-11-07T00:51:08.338Z,93.01
2017-11-07T00:53:36.049Z,92.82
2017-11-07T00:56:03.748Z,92.87
2017-11-07T00:58:31.492Z,93.17
2017-11-07T01:00:59.701Z,93.87
2017-11-07T01:03:27.388Z,93.89
2017-11-07T01:05:55.120Z,93.52
2017-11-07T01:08:23.259Z,93.31
2017-11-07T01:10:51.079Z,93.21
2017-11-07T01:13:18.825Z,93.33
2017-11-07T01:15:46.493Z,93.09
2017-11-07T01:18:14.358Z,92.87
2017-11-07T01:20:42.055Z,92.53
2017-11-07T01:23:09.795Z,92.30
2017-11-07T01:25:37.485Z,92.52
2017-11-07T01:28:05.257Z,92.42
2017-11-07T01:30:32.947Z,92.45
2017-11-07T01:33:00.671Z,92.34
2017-11-07T01:35:28.340Z,92.42
2017-11-07T01:37:56.069Z,92.34
2017-11-07T01:40:23.782Z,92.61
2017-11-07T01:42:51.551Z,92.58
2017-11-07T01:45:19.271Z,92.56
2017-11-07T01:47:47.037Z,92.74
2017-11-07T01:50:14.735Z,93.23
2017-11-07T01:52:42.455Z,93.09
2017-11-07T01:55:10.146Z,92.58
2017-11-07T01:57:37.872Z,92.48
2017-11-07T02:00:05.588Z,93.04
2017-11-07T02:02:33.320Z,93.62
2017-11-07T02:05:00.995Z,93.98
2017-11-07T02:07:28.734Z,93.70
2017-11-07T02:09:56.453Z,93.28
2017-11-07T02:12:24.304Z,93.21
2017-11-07T02:14:51.979Z,93.26
2017-11-07T02:17:19.700Z,93.17
2017-11-07T02:19:47.480Z,92.88
2017-11-07T02:22:15.210Z,92.87
2017-11-07T02:24:42.949Z,92.86
2017-11-07T02:27:10.751Z,92.83
2017-11-07T02:29:38.461Z,92.85
2017-11-07T02:32:06.156Z,93.07
2017-11-07T02:34:33.958Z,93.03
2017-11-07T02:37:01.684Z,92.88
2017-11-07T02:39:30.280Z,92.86
2017-11-07T02:41:58.036Z,92.75
2017-11-07T02:44:25.737Z,92.87
2017-11-07T02:46:53.437Z,93.45
2017-11-07T02:49:21.153Z,93.85
2017-11-07T02:51:48.812Z,92.99
2017-11-07T02:54:16.663Z,92.74
2017-11-07T02:56:44.409Z,93.01
2017-11-07T02:59:12.130Z,93.03
2017-11-07T03:01:39.818Z,92.88
2017-11-07T03:04:07.543Z,93.06
2017-11-07T03:06:35.213Z,92.96
2017-11-07T03:09:03.070Z,93.02
2017-11-07T03:11:30.753Z,92.90
2017-11-07T03:13:58.541Z,93.01
2017-11-07T03:16:26.288Z,93.07
2017-11-07T03:18:54.086Z,93.15
2017-11-07T03:21:21.890Z,93.33
2017-11-07T03:23:49.615Z,93.37
2017-11-07T03:26:18.510Z,93.15
2017-11-07T03:28:46.203Z,92.78
2017-11-07T03:31:13.947Z,92.96
2017-11-07T03:33:41.633Z,93.04
2017-11-07T03:36:09.360Z,93.07
2017-11-07T03:38:37.040Z,93.19
2017-11-07T03:41:04.785Z,92.99
2017-11-07T03:43:32.453Z,93.03
2017-11-07T03:46:00.177Z,92.96
2017-11-07T03:48:27.860Z,93.00
2017-11-07T03:50:55.647Z,93.01
2017-11-07T03:53:23.360Z,92.98
2017-11-07T03:55:51.101Z,92.63
2017-11-07T03:58:18.776Z,92.71
2017-11-07T04:00:46.436Z,92.71
2017-11-07T04:03:14.174Z,92.45
2017-11-07T04:05:41.832Z,91.24
2017-11-07T04:08:09.553Z,91.19
2017-11-07T04:10:37.258Z,91.64
2017-11-07T04:13:04.886Z,92.36
2017-11-07T04:15:32.594Z,92.69
2017-11-07T04:18:00.368Z,93.01
2017-11-07T04:20:28.063Z,93.18
2017-11-07T04:22:55.759Z,93.05
2017-11-07T04:25:23.489Z,93.08
2017-11-07T04:27:51.207Z,93.34
2017-11-07T04:30:18.989Z,93.25
2017-11-07T04:32:46.753Z,93.25
2017-11-07T04:35:14.486Z,93.36
2017-11-07T04:37:42.139Z,93.28
2017-11-07T04:40:09.891Z,93.21
2017-11-07T04:42:37.607Z,93.24
2017-11-07T04:45:05.871Z,93.53
2017-11-07T04:47:33.573Z,93.67
2017-11-07T04:50:01.258Z,93.46
2017-11-07T04:52:28.962Z,93.35
2017-11-07T04:54:56.641Z,93.11
2017-11-07T04:57:24.392Z,92.95
2017-11-07T04:59:52.151Z,93.06
2017-11-07T05:02:19.913Z,92.82
2017-11-07T05:04:47.618Z,92.88
2017-11-07T05:07:15.304Z,93.84
2017-11-07T05:09:43.035Z,94.14
2017-11-07T05:12:10.710Z,93.61
2017-11-07T05:14:38.478Z,93.62
2017-11-07T05:17:06.181Z,93.70
2017-11-07T05:19:33.938Z,93.41
2017-11-07T05:22:01.682Z,93.37
2017-11-07T05:24:29.349Z,93.33
2017-11-07T05:26:57.060Z,93.40
2017-11-07T05:29:25.137Z,93.52
2017-11-07T05:31:52.905Z,93.68
2017-11-07T05:34:20.679Z,93.56
2017-11-07T05:36:48.406Z,93.58
2017-11-07T05:39:16.098Z,93.85
2017-11-07T05:41:43.871Z,94.49
2017-11-07T05:44:11.571Z,94.20
2017-11-07T05:46:39.324Z,93.83
2017-11-07T05:49:07.048Z,93.66
2017-11-07T05:51:34.814Z,93.68
2017-11-07T05:54:02.540Z,94.11
2017-11-07T05:56:31.340Z,93.91
2017-11-07T05:58:59.075Z,93.76
2017-11-07T06:01:26.797Z,93.66
2017-11-07T06:03:55.337Z,93.89
2017-11-07T06:06:23.114Z,94.43
2017-11-07T06:08:50.969Z,94.36
2017-11-07T06:11:18.665Z,94.30
2017-11-07T06:13:46.392Z,94.22
2017-11-07T06:16:14.084Z,94.12
2017-11-07T06:18:41.831Z,94.22
2017-11-07T06:21:09.596Z,93.86
2017-11-07T06:23:37.420Z,93.71
2017-11-07T06:26:05.155Z,93.48
2017-11-07T06:28:32.900Z,93.17
2017-11-07T06:31:00.664Z,93.15
2017-11-07T06:33:28.427Z,93.20
2017-11-07T06:35:56.186Z,92.93
2017-11-07T06:38:24.904Z,93.01
2017-11-07T06:40:53.117Z,93.13
2017-11-07T06:43:20.799Z,93.27
2017-11-07T06:45:49.537Z,93.31
2017-11-07T06:48:17.225Z,93.57
2017-11-07T06:50:45.925Z,93.59
2017-11-07T06:53:13.601Z,93.87
2017-11-07T06:55:41.369Z,93.89
2017-11-07T06:58:09.206Z,93.97
2017-11-07T07:00:36.967Z,93.88
2017-11-07T07:03:04.701Z,93.54
2017-11-07T07:05:32.418Z,93.26
2017-11-07T07:08:01.794Z,93.26
2017-11-07T07:10:29.621Z,93.21
2017-11-07T07:12:59.447Z,93.24
2017-11-07T07:15:27.136Z,93.23
2017-11-07T07:17:54.808Z,93.14
2017-11-07T07:20:23.627Z,92.84
2017-11-07T07:22:51.321Z,92.98
2017-11-07T07:25:19.093Z,92.70
2017-11-07T07:27:47.626Z,92.96
2017-11-07T07:30:16.235Z,92.65
2017-11-07T07:32:43.986Z,92.86
2017-11-07T07:35:11.703Z,93.21
2017-11-07T07:37:39.476Z,93.07
2017-11-07T07:40:08.084Z,93.63
2017-11-07T07:42:36.418Z,93.02
2017-11-07T07:45:04.189Z,91.74
2017-11-07T07:47:31.917Z,92.37
2017-11-07T07:49:59.664Z,92.61
2017-11-07T07:52:27.399Z,92.27
2017-11-07T07:54:55.137Z,91.10
2017-11-07T07:57:23.328Z,92.04
2017-11-07T07:59:51.033Z,91.79
2017-11-07T08:02:20.017Z,91.64
2017-11-07T08:04:47.768Z,92.02
2017-11-07T08:07:15.510Z,92.35
2017-11-07T08:09:43.374Z,92.01
2017-11-07T08:12:11.130Z,91.82
2017-11-07T08:14:39.828Z,90.72
2017-11-07T08:17:07.647Z,90.56
2017-11-07T08:19:35.398Z,90.52
2017-11-07T08:22:03.258Z,90.60
2017-11-07T08:24:30.950Z,90.72
2017-11-07T08:27:00.619Z,90.42
2017-11-07T08:29:28.394Z,89.32
2017-11-07T08:31:56.130Z,90.31
2017-11-07T08:34:23.854Z,90.77
2017-11-07T08:36:51.611Z,90.90
2017-11-07T08:39:19.457Z,91.02
2017-11-07T08:41:47.599Z,91.02
2017-11-07T08:44:15.287Z,91.18
2017-11-07T08:46:43.023Z,90.50
2017-11-07T08:49:10.756Z,90.83
2017-11-07T08:51:38.556Z,91.20
2017-11-07T08:54:07.638Z,92.03
2017-11-07T08:56:35.331Z,91.41
2017-11-07T08:59:03.061Z,91.14
2017-11-07T09:01:32.050Z,91.33
2017-11-07T09:03:59.748Z,90.72
2017-11-07T09:06:27.500Z,90.54
2017-11-07T09:08:56.057Z,88.30
2017-11-07T09:11:27.031Z,88.01
2017-11-07T09:13:54.812Z,89.35
2017-11-07T09:16:23.191Z,90.09
2017-11-07T09:18:50.914Z,90.04
2017-11-07T09:21:18.716Z,90.68
2017-11-07T09:23:46.484Z,91.76
2017-11-07T09:26:14.185Z,91.83
2017-11-07T09:28:41.874Z,91.65
2017-11-07T09:31:09.632Z,90.70
2017-11-07T09:33:37.391Z,90.38
2017-11-07T09:36:05.092Z,90.74
2017-11-07T09:38:32.894Z,89.16
2017-11-07T09:41:00.712Z,89.42
2017-11-07T09:43:28.735Z,88.71
2017-11-07T09:45:56.551Z,89.38
2017-11-07T09:48:25.184Z,88.48
2017-11-07T09:50:52.960Z,89.14
2017-11-07T09:53:20.796Z,89.59
2017-11-07T09:55:48.575Z,90.48
2017-11-07T09:58:16.327Z,90.85
2017-11-07T10:00:44.247Z,90.54
2017-11-07T10:03:11.962Z,89.58
2017-11-07T10:05:39.721Z,89.30
2017-11-07T10:08:07.403Z,89.33
2017-11-07T10:10:35.130Z,89.44
2017-11-07T10:13:02.842Z,88.30
2017-11-07T10:15:30.619Z,87.31
2017-11-07T10:17:58.975Z,89.40
2017-11-07T10:20:26.657Z,87.59
2017-11-07T10:22:54.429Z,87.32
2017-11-07T10:25:22.182Z,87.11
2017-11-07T10:27:49.944Z,86.68
2017-11-07T10:30:17.777Z,86.77
2017-11-07T10:32:45.524Z,87.26
2017-11-07T10:35:13.290Z,87.53
2017-11-07T10:37:41.034Z,88.61
2017-11-07T10:40:08.776Z,87.71
2017-11-07T10:42:37.148Z,88.25
2017-11-07T10:45:04.884Z,88.98
2017-11-07T10:47:32.666Z,89.07
2017-11-07T10:50:01.385Z,89.12
2017-11-07T10:52:29.103Z,88.89
2017-11-07T10:54:56.826Z,87.47
2017-11-07T10:57:24.603Z,85.44
2017-11-07T10:59:52.400Z,83.87
2017-11-07T11:02:20.182Z,83.19
2017-11-07T11:04:49.029Z,82.83
2017-11-07T11:07:16.709Z,83.08
2017-11-07T11:09:44.488Z,82.79
2017-11-07T11:12:12.221Z,81.45
2017-11-07T11:14:39.997Z,78.11
2017-11-07T11:19:41.626Z,80.33
2017-11-07T11:22:09.394Z,79.89
2017-11-07T11:24:37.988Z,80.06
2017-11-07T11:27:05.655Z,81.25
2017-11-07T11:29:33.362Z,80.97
2017-11-07T11:32:02.309Z,82.70
2017-11-07T11:34:30.768Z,83.36
2017-11-07T11:36:58.489Z,83.04
2017-11-07T11:39:26.189Z,83.40
2017-11-07T11:41:53.909Z,83.60
2017-11-07T11:44:21.580Z,84.19
2017-11-07T11:46:49.347Z,84.29
2017-11-07T11:49:17.068Z,84.50
2017-11-07T11:51:44.786Z,83.82
2017-11-07T11:54:12.540Z,86.04
2017-11-07T11:56:40.284Z,86.45
2017-11-07T11:59:08.034Z,86.67
2017-11-07T12:01:35.754Z,87.03
2017-11-07T12:04:03.501Z,87.64
2017-11-07T12:06:31.213Z,87.18
2017-11-07T12:08:58.955Z,87.35
2017-11-07T12:11:27.078Z,86.70
2017-11-07T12:13:54.843Z,85.65
2017-11-07T12:16:22.621Z,87.36
2017-11-07T12:18:50.647Z,87.74
2017-11-07T12:21:18.508Z,87.89
2017-11-07T12:23:47.060Z,87.49
2017-11-07T12:26:15.629Z,87.24
2017-11-07T12:28:43.496Z,87.87
2017-11-07T12:31:11.213Z,88.00
2017-11-07T12:33:39.044Z,87.36
2017-11-07T12:36:06.846Z,87.42
2017-11-07T12:38:35.623Z,88.18
2017-11-07T12:41:05.078Z,88.85
2017-11-07T12:43:33.267Z,88.83
2017-11-07T12:46:01.016Z,88.56
2017-11-07T12:48:30.725Z,88.52
2017-11-07T12:51:10.107Z,89.14
2017-11-07T12:53:37.806Z,89.28
2017-11-07T12:56:05.548Z,89.33
2017-11-07T12:58:34.161Z,89.17
2017-11-07T13:01:02.074Z,89.18
2017-11-07T13:03:29.814Z,89.82
2017-11-07T13:05:57.607Z,89.74
2017-11-07T13:08:25.367Z,89.52
2017-11-07T13:10:53.137Z,89.33
2017-11-07T13:13:20.965Z,89.60
2017-11-07T13:15:48.724Z,89.55
2017-11-07T13:18:16.532Z,89.91
2017-11-07T13:20:44.252Z,89.78
2017-11-07T13:23:12.249Z,89.79
2017-11-07T13:25:40.082Z,90.05
2017-11-07T13:28:11.673Z,90.19
2017-11-07T13:30:39.484Z,90.05
2017-11-07T13:33:07.257Z,90.32
2017-11-07T13:35:35.071Z,90.15
2017-11-07T13:38:02.986Z,89.92
2017-11-07T13:40:31.938Z,90.14
2017-11-07T13:42:59.744Z,90.70
2017-11-07T13:45:27.529Z,90.54
2017-11-07T13:48:02.710Z,89.94
2017-11-07T13:50:30.453Z,89.04
2017-11-07T13:52:58.288Z,87.60
2017-11-07T13:55:26.029Z,86.70
2017-11-07T13:57:53.851Z,86.35
2017-11-07T14:00:21.666Z,86.74
2017-11-07T14:02:49.560Z,87.17
2017-11-07T14:05:17.347Z,87.54
2017-11-07T14:07:45.082Z,87.57
2017-11-07T14:10:12.930Z,88.45
2017-11-07T14:12:40.801Z,86.99
2017-11-07T14:15:08.619Z,87.89
2017-11-07T14:17:36.489Z,88.62
2017-11-07T14:20:04.933Z,91.00
2017-11-07T14:22:32.653Z,90.15
2017-11-07T14:25:01.577Z,89.54
2017-11-07T14:27:29.312Z,89.25
2017-11-07T14:29:57.069Z,89.15
2017-11-07T14:32:25.066Z,89.24
2017-11-07T14:34:52.798Z,89.61
2017-11-07T14:37:20.651Z,89.26
2017-11-07T14:39:48.490Z,89.35
2017-11-07T14:42:17.382Z,89.89
2017-11-07T14:44:45.923Z,90.26
2017-11-07T14:47:13.742Z,90.92
2017-11-07T14:49:41.514Z,90.42
2017-11-07T14:52:09.288Z,90.54
2017-11-07T14:54:37.006Z,90.12
2017-11-07T14:57:04.854Z,90.46
2017-11-07T14:59:33.379Z,89.80
2017-11-07T15:02:01.092Z,89.59
2017-11-07T15:04:28.848Z,89.71
2017-11-07T15:06:57.709Z,90.32
2017-11-07T15:09:25.454Z,90.24
2017-11-07T15:11:53.254Z,90.23
2017-11-07T15:14:21.061Z,90.16
2017-11-07T15:16:48.838Z,90.41
2017-11-07T15:19:16.602Z,90.98
2017-11-07T15:21:44.433Z,90.78
2017-11-07T15:24:12.202Z,90.55
2017-11-07T15:26:39.997Z,90.97
2017-11-07T15:29:07.771Z,90.74
2017-11-07T15:31:35.497Z,90.95
2017-11-07T15:34:03.761Z,90.83
2017-11-07T15:36:31.547Z,91.56
2017-11-07T15:38:59.256Z,91.32
2017-11-07T15:41:27.497Z,91.02
2017-11-07T15:43:55.264Z,91.31
2017-11-07T15:46:22.969Z,90.81
2017-11-07T15:48:50.844Z,90.75
2017-11-07T15:51:18.696Z,90.94
2017-11-07T15:53:46.671Z,91.41
2017-11-07T15:56:14.496Z,91.33
2017-11-07T15:58:42.302Z,91.10
2017-11-07T16:01:11.037Z,91.47
2017-11-07T16:03:39.828Z,91.54
2017-11-07T16:06:07.581Z,91.16
2017-11-07T16:08:35.361Z,90.93
2017-11-07T16:11:03.176Z,90.89
2017-11-07T16:13:30.966Z,91.42
2017-11-07T16:15:58.916Z,91.96
2017-11-07T16:18:26.714Z,92.00
2017-11-07T16:20:54.524Z,92.53
2017-11-07T16:23:23.467Z,92.50
2017-11-07T16:25:51.206Z,92.38
2017-11-07T16:28:18.983Z,92.21
2017-11-07T16:30:46.811Z,91.83
2017-11-07T16:33:15.160Z,91.98
2017-11-07T16:35:43.815Z,91.96
2017-11-07T16:38:11.632Z,92.46
2017-11-07T16:40:39.399Z,92.27
2017-11-07T16:43:07.162Z,92.24
2017-11-07T16:45:38.226Z,92.13
2017-11-07T16:48:06.012Z,92.41
2017-11-07T16:50:33.940Z,92.09
2017-11-07T16:53:01.742Z,92.52
2017-11-07T16:55:31.055Z,93.09
2017-11-07T16:57:59.141Z,92.63
2017-11-07T17:00:27.119Z,91.95
2017-11-07T17:02:54.993Z,91.79
2017-11-07T17:05:23.555Z,91.55
2017-11-07T17:07:51.575Z,92.16
2017-11-07T17:10:19.391Z,91.70
2017-11-07T17:12:47.257Z,91.57
2017-11-07T17:15:15.106Z,91.77
2017-11-07T17:17:43.638Z,91.91
2017-11-07T17:20:12.708Z,91.95
2017-11-07T17:22:42.319Z,91.70
2017-11-07T17:25:10.214Z,91.71
2017-11-07T17:27:40.455Z,91.97
2017-11-07T17:30:09.421Z,91.72
2017-11-07T17:32:37.273Z,91.65
2017-11-07T17:35:06.374Z,91.38
2017-11-07T17:37:34.809Z,91.72
2017-11-07T17:40:02.734Z,91.79
2017-11-07T17:42:31.501Z,91.65
2017-11-07T17:44:59.705Z,91.77
2017-11-07T17:47:28.433Z,91.67
2017-11-07T17:49:56.296Z,91.52
2017-11-07T17:52:24.070Z,91.79
2017-11-07T17:54:51.976Z,91.71
2017-11-07T17:57:19.896Z,91.87
2017-11-07T17:59:48.155Z,91.51
2017-11-07T18:02:17.148Z,91.77
2017-11-07T18:04:45.010Z,92.65
2017-11-07T18:07:13.598Z,92.48
2017-11-07T18:09:41.458Z,92.51
2017-11-07T18:12:10.049Z,91.91
2017-11-07T18:14:37.839Z,92.24
2017-11-07T18:17:05.770Z,92.84
2017-11-07T18:19:33.576Z,92.57
2017-11-07T18:22:01.852Z,92.66
2017-11-07T18:24:29.653Z,92.32
2017-11-07T18:26:57.434Z,91.80
2017-11-07T18:29:26.081Z,91.64
2017-11-07T18:31:53.910Z,91.69
2017-11-07T18:34:22.089Z,92.09
2017-11-07T18:36:50.619Z,91.85
2017-11-07T18:39:18.480Z,92.49
2017-11-07T18:41:46.244Z,92.89
2017-11-07T18:44:14.231Z,92.75
2017-11-07T18:46:44.397Z,92.40
2017-11-07T18:49:12.444Z,92.27
2017-11-07T18:51:40.296Z,92.38
2017-11-07T18:54:08.160Z,91.67
2017-11-07T18:56:37.056Z,91.53
2017-11-07T18:59:05.092Z,92.54
2017-11-07T19:01:34.173Z,92.77
2017-11-07T19:04:01.932Z,92.97
2017-11-07T19:06:30.897Z,90.90
2017-11-07T19:08:59.600Z,91.64
2017-11-07T19:11:28.376Z,91.43
2017-11-07T19:13:57.161Z,91.80
2017-11-07T19:16:25.696Z,91.68
2017-11-07T19:18:55.175Z,91.69
2017-11-07T19:21:23.794Z,91.68
2017-11-07T19:23:54.450Z,92.03
2017-11-07T19:26:22.827Z,92.43
2017-11-07T19:28:50.547Z,92.46
2017-11-07T19:31:20.708Z,92.28
2017-11-07T19:33:53.753Z,92.30
2017-11-07T19:36:22.698Z,92.10
2017-11-07T19:38:51.590Z,91.96
2017-11-07T19:41:21.149Z,91.77
2017-11-07T19:43:49.876Z,91.47
2017-11-07T19:46:18.419Z,91.42
2017-11-07T19:48:46.238Z,91.59
2017-11-07T19:51:14.000Z,92.36
2017-11-07T19:53:41.861Z,92.17
2017-11-07T19:56:09.672Z,91.82
2017-11-07T19:58:40.048Z,91.58
2017-11-07T20:01:10.191Z,90.69
2017-11-07T20:03:38.150Z,88.92
2017-11-07T20:06:05.971Z,89.40
2017-11-07T20:08:36.441Z,90.89
2017-11-07T20:11:07.362Z,91.45
2017-11-07T20:13:35.166Z,91.43
2017-11-07T20:16:03.990Z,91.40
2017-11-07T20:18:32.889Z,91.82
2017-11-07T20:21:00.611Z,91.56
2017-11-07T20:23:28.687Z,91.83
2017-11-07T20:25:57.361Z,91.99
2017-11-07T20:28:26.066Z,92.32
2017-11-07T20:30:53.855Z,92.59
2017-11-07T20:33:22.811Z,92.67
2017-11-07T20:35:55.681Z,92.23
2017-11-07T20:38:23.511Z,91.50
2017-11-07T20:40:51.508Z,91.90
2017-11-07T20:43:19.786Z,91.88
2017-11-07T20:45:47.515Z,91.93
2017-11-07T21:16:44.168Z,91.10
2017-11-07T21:19:11.848Z,91.36
2017-11-07T21:21:39.561Z,92.08
2017-11-07T21:24:07.306Z,92.15
2017-11-07T21:26:35.002Z,91.98
2017-11-07T21:29:02.738Z,91.82
2017-11-07T21:31:31.087Z,91.86
2017-11-07T21:33:58.962Z,91.82
2017-11-07T21:36:26.708Z,91.91
2017-11-07T21:38:54.498Z,92.05
2017-11-07T21:41:22.322Z,91.87
2017-11-07T21:43:50.136Z,91.70
2017-11-07T21:46:21.625Z,91.37
2017-11-07T21:48:50.043Z,91.82
2017-11-07T21:51:18.142Z,91.96
2017-11-07T21:53:45.908Z,92.33
2017-11-07T21:56:13.674Z,92.29
2017-11-07T21:58:41.413Z,92.24
2017-11-07T22:01:09.986Z,92.14
2017-11-07T22:03:37.692Z,92.06
2017-11-07T22:06:05.449Z,92.63
2017-11-07T22:08:34.727Z,92.69
2017-11-07T22:11:02.477Z,93.00
2017-11-07T22:13:30.190Z,93.28
2017-11-07T22:15:58.082Z,93.18
2017-11-07T22:18:26.198Z,92.67
2017-11-07T22:20:53.905Z,92.62
2017-11-07T22:23:26.698Z,92.75
2017-11-07T22:25:55.613Z,92.72
2017-11-07T22:28:24.580Z,92.55
2017-11-07T22:30:53.382Z,92.64
2017-11-07T22:33:21.109Z,92.76
2017-11-07T22:35:49.946Z,92.61
2017-11-07T22:38:17.664Z,92.62
2017-11-07T22:40:45.356Z,92.70
2017-11-07T22:43:13.131Z,92.04
2017-11-07T22:45:40.843Z,92.42
2017-11-07T22:48:08.592Z,92.56
2017-11-07T22:50:36.319Z,92.30
2017-11-07T22:53:04.017Z,92.23
2017-11-07T22:55:31.735Z,92.23
2017-11-07T22:58:00.179Z,92.33
2017-11-07T23:00:28.021Z,92.27
2017-11-07T23:02:55.697Z,92.21
2017-11-07T23:05:23.379Z,92.33
2017-11-07T23:07:51.132Z,92.51
2017-11-07T23:10:18.838Z,92.52
2017-11-07T23:12:46.613Z,92.16
2017-11-07T23:15:14.296Z,92.08
2017-11-07T23:17:42.009Z,92.12
2017-11-07T23:20:09.704Z,92.18
2017-11-07T23:22:37.461Z,92.04
2017-11-07T23:25:05.141Z,92.19
2017-11-07T23:27:32.804Z,92.08
2017-11-07T23:30:00.684Z,92.07
2017-11-07T23:32:28.367Z,92.03
2017-11-07T23:34:56.083Z,91.91
2017-11-07T23:37:23.778Z,92.02
2017-11-07T23:39:51.523Z,92.01
2017-11-07T23:42:19.352Z,92.04
2017-11-07T23:44:47.034Z,92.20
2017-11-07T23:47:14.805Z,92.70
2017-11-07T23:49:42.506Z,92.42
2017-11-07T23:52:10.182Z,92.53
2017-11-07T23:54:37.913Z,92.79
2017-11-07T23:57:05.660Z,92.74
2017-11-07T23:59:33.415Z,92.95
